sensor_id;sensor_type;location;lat;lon;timestamp;P1;durP1;ratioP1;P2;durP2;ratioP2
68806;SDS011;55800;54.272;18.558;2022-10-17T00:00:07;13.50;;;7.95;;
68806;SDS011;55800;54.272;18.558;2022-10-17T00:02:58;12.23;;;7.90;;
68806;SDS011;55800;54.272;18.558;2022-10-17T00:05:27;11.80;;;6.85;;
68806;SDS011;55800;54.272;18.558;2022-10-17T00:07:57;10.38;;;8.32;;
68806;SDS011;55800;54.272;18.558;2022-10-17T00:10:26;15.27;;;7.15;;
68806;SDS011;55800;54.272;18.558;2022-10-17T00:12:57;20.90;;;11.90;;
68806;SDS011;55800;54.272;18.558;2022-10-17T00:15:26;17.70;;;9.05;;
68806;SDS011;55800;54.272;18.558;2022-10-17T00:20:25;15.00;;;8.50;;
68806;SDS011;55800;54.272;18.558;2022-10-17T00:22:56;88.38;;;15.30;;
68806;SDS011;55800;54.272;18.558;2022-10-17T00:25:26;42.00;;;13.50;;
68806;SDS011;55800;54.272;18.558;2022-10-17T00:27:57;19.50;;;10.63;;
68806;SDS011;55800;54.272;18.558;2022-10-17T00:30:26;20.85;;;10.20;;
68806;SDS011;55800;54.272;18.558;2022-10-17T00:32:56;18.63;;;11.57;;
68806;SDS011;55800;54.272;18.558;2022-10-17T00:35:25;22.40;;;12.43;;
68806;SDS011;55800;54.272;18.558;2022-10-17T00:37:54;22.08;;;10.55;;
68806;SDS011;55800;54.272;18.558;2022-10-17T00:40:24;15.07;;;10.23;;
68806;SDS011;55800;54.272;18.558;2022-10-17T00:42:54;17.77;;;9.93;;
68806;SDS011;55800;54.272;18.558;2022-10-17T00:45:25;16.80;;;10.38;;
68806;SDS011;55800;54.272;18.558;2022-10-17T00:47:57;14.93;;;9.40;;
68806;SDS011;55800;54.272;18.558;2022-10-17T00:50:30;13.82;;;8.82;;
68806;SDS011;55800;54.272;18.558;2022-10-17T00:53:02;14.35;;;7.25;;
68806;SDS011;55800;54.272;18.558;2022-10-17T00:55:35;12.23;;;6.85;;
68806;SDS011;55800;54.272;18.558;2022-10-17T00:58:11;9.98;;;6.47;;
68806;SDS011;55800;54.272;18.558;2022-10-17T01:00:41;18.15;;;7.50;;
68806;SDS011;55800;54.272;18.558;2022-10-17T01:03:11;10.75;;;7.03;;
68806;SDS011;55800;54.272;18.558;2022-10-17T01:05:41;14.75;;;7.15;;
68806;SDS011;55800;54.272;18.558;2022-10-17T01:08:10;11.10;;;6.55;;
68806;SDS011;55800;54.272;18.558;2022-10-17T01:10:43;10.32;;;6.63;;
68806;SDS011;55800;54.272;18.558;2022-10-17T01:13:24;10.02;;;6.72;;
68806;SDS011;55800;54.272;18.558;2022-10-17T01:15:58;13.77;;;7.72;;
68806;SDS011;55800;54.272;18.558;2022-10-17T01:18:39;26.10;;;7.85;;
68806;SDS011;55800;54.272;18.558;2022-10-17T01:21:28;31.60;;;8.88;;
68806;SDS011;55800;54.272;18.558;2022-10-17T01:24:11;35.80;;;8.73;;
68806;SDS011;55800;54.272;18.558;2022-10-17T01:27:07;11.02;;;6.10;;
68806;SDS011;55800;54.272;18.558;2022-10-17T01:30:02;9.93;;;6.35;;
68806;SDS011;55800;54.272;18.558;2022-10-17T01:33:00;10.43;;;6.90;;
68806;SDS011;55800;54.272;18.558;2022-10-17T01:35:36;10.67;;;6.83;;
68806;SDS011;55800;54.272;18.558;2022-10-17T01:38:09;14.30;;;6.88;;
68806;SDS011;55800;54.272;18.558;2022-10-17T01:40:43;10.65;;;7.05;;
68806;SDS011;55800;54.272;18.558;2022-10-17T01:43:18;9.88;;;6.55;;
68806;SDS011;55800;54.272;18.558;2022-10-17T01:45:53;12.25;;;7.22;;
68806;SDS011;55800;54.272;18.558;2022-10-17T01:48:31;9.23;;;6.30;;
68806;SDS011;55800;54.272;18.558;2022-10-17T01:51:05;12.45;;;6.20;;
68806;SDS011;55800;54.272;18.558;2022-10-17T01:53:39;10.95;;;7.00;;
68806;SDS011;55800;54.272;18.558;2022-10-17T01:56:12;15.85;;;7.30;;
68806;SDS011;55800;54.272;18.558;2022-10-17T01:58:45;18.92;;;6.18;;
68806;SDS011;55800;54.272;18.558;2022-10-17T02:01:18;16.05;;;6.47;;
68806;SDS011;55800;54.272;18.558;2022-10-17T02:03:51;9.05;;;5.57;;
68806;SDS011;55800;54.272;18.558;2022-10-17T02:06:23;10.63;;;7.13;;
68806;SDS011;55800;54.272;18.558;2022-10-17T02:08:52;12.00;;;6.93;;
68806;SDS011;55800;54.272;18.558;2022-10-17T02:11:22;10.60;;;6.30;;
68806;SDS011;55800;54.272;18.558;2022-10-17T02:14:00;10.85;;;6.63;;
68806;SDS011;55800;54.272;18.558;2022-10-17T02:16:42;10.23;;;5.88;;
68806;SDS011;55800;54.272;18.558;2022-10-17T02:19:29;9.20;;;6.13;;
68806;SDS011;55800;54.272;18.558;2022-10-17T02:22:09;10.95;;;6.22;;
68806;SDS011;55800;54.272;18.558;2022-10-17T02:24:48;8.60;;;5.55;;
68806;SDS011;55800;54.272;18.558;2022-10-17T02:27:25;8.57;;;5.75;;
68806;SDS011;55800;54.272;18.558;2022-10-17T02:30:04;11.43;;;6.85;;
68806;SDS011;55800;54.272;18.558;2022-10-17T02:33:51;8.63;;;5.25;;
68806;SDS011;55800;54.272;18.558;2022-10-17T02:36:28;12.95;;;6.28;;
68806;SDS011;55800;54.272;18.558;2022-10-17T02:39:03;7.53;;;4.78;;
68806;SDS011;55800;54.272;18.558;2022-10-17T02:41:34;8.15;;;5.47;;
68806;SDS011;55800;54.272;18.558;2022-10-17T02:44:06;8.57;;;5.47;;
68806;SDS011;55800;54.272;18.558;2022-10-17T02:46:37;9.05;;;5.85;;
68806;SDS011;55800;54.272;18.558;2022-10-17T02:49:11;8.75;;;6.32;;
68806;SDS011;55800;54.272;18.558;2022-10-17T02:51:48;9.68;;;5.57;;
68806;SDS011;55800;54.272;18.558;2022-10-17T02:54:27;9.60;;;6.57;;
68806;SDS011;55800;54.272;18.558;2022-10-17T02:57:02;9.13;;;6.07;;
68806;SDS011;55800;54.272;18.558;2022-10-17T02:59:38;8.60;;;5.90;;
68806;SDS011;55800;54.272;18.558;2022-10-17T03:02:11;7.50;;;5.20;;
68806;SDS011;55800;54.272;18.558;2022-10-17T03:07:11;8.90;;;5.38;;
68806;SDS011;55800;54.272;18.558;2022-10-17T03:09:43;9.75;;;5.63;;
68806;SDS011;55800;54.272;18.558;2022-10-17T03:12:12;10.95;;;6.03;;
68806;SDS011;55800;54.272;18.558;2022-10-17T03:14:41;9.32;;;6.82;;
68806;SDS011;55800;54.272;18.558;2022-10-17T03:17:11;9.98;;;5.30;;
68806;SDS011;55800;54.272;18.558;2022-10-17T03:19:40;8.60;;;5.32;;
68806;SDS011;55800;54.272;18.558;2022-10-17T03:22:09;7.75;;;5.55;;
68806;SDS011;55800;54.272;18.558;2022-10-17T03:24:44;9.02;;;5.43;;
68806;SDS011;55800;54.272;18.558;2022-10-17T03:27:13;14.75;;;6.10;;
68806;SDS011;55800;54.272;18.558;2022-10-17T03:29:44;11.48;;;5.75;;
68806;SDS011;55800;54.272;18.558;2022-10-17T03:32:14;8.68;;;5.88;;
68806;SDS011;55800;54.272;18.558;2022-10-17T03:34:44;8.32;;;4.80;;
68806;SDS011;55800;54.272;18.558;2022-10-17T03:37:14;8.52;;;4.75;;
68806;SDS011;55800;54.272;18.558;2022-10-17T03:39:44;9.40;;;5.45;;
68806;SDS011;55800;54.272;18.558;2022-10-17T03:42:14;7.75;;;5.90;;
68806;SDS011;55800;54.272;18.558;2022-10-17T03:44:43;8.55;;;5.35;;
68806;SDS011;55800;54.272;18.558;2022-10-17T03:47:13;8.20;;;5.63;;
68806;SDS011;55800;54.272;18.558;2022-10-17T03:49:43;10.18;;;6.25;;
68806;SDS011;55800;54.272;18.558;2022-10-17T03:52:14;10.35;;;6.45;;
68806;SDS011;55800;54.272;18.558;2022-10-17T03:54:44;8.95;;;6.55;;
68806;SDS011;55800;54.272;18.558;2022-10-17T03:57:13;10.30;;;6.50;;
68806;SDS011;55800;54.272;18.558;2022-10-17T03:59:42;10.55;;;7.50;;
68806;SDS011;55800;54.272;18.558;2022-10-17T04:02:16;11.15;;;5.28;;
68806;SDS011;55800;54.272;18.558;2022-10-17T04:04:46;12.88;;;5.45;;
68806;SDS011;55800;54.272;18.558;2022-10-17T04:07:16;15.07;;;7.13;;
68806;SDS011;55800;54.272;18.558;2022-10-17T04:09:47;10.82;;;7.88;;
68806;SDS011;55800;54.272;18.558;2022-10-17T04:12:18;9.55;;;6.05;;
68806;SDS011;55800;54.272;18.558;2022-10-17T04:14:48;8.20;;;5.88;;
68806;SDS011;55800;54.272;18.558;2022-10-17T04:17:17;9.10;;;5.47;;
68806;SDS011;55800;54.272;18.558;2022-10-17T04:19:47;13.35;;;5.80;;
68806;SDS011;55800;54.272;18.558;2022-10-17T04:22:19;7.47;;;5.53;;
68806;SDS011;55800;54.272;18.558;2022-10-17T04:24:48;10.45;;;5.85;;
68806;SDS011;55800;54.272;18.558;2022-10-17T04:27:24;15.02;;;6.22;;
68806;SDS011;55800;54.272;18.558;2022-10-17T04:29:54;7.75;;;5.50;;
68806;SDS011;55800;54.272;18.558;2022-10-17T04:35:25;9.00;;;5.53;;
68806;SDS011;55800;54.272;18.558;2022-10-17T04:38:02;10.55;;;5.90;;
68806;SDS011;55800;54.272;18.558;2022-10-17T04:40:31;11.52;;;7.05;;
68806;SDS011;55800;54.272;18.558;2022-10-17T04:43:01;9.18;;;6.15;;
68806;SDS011;55800;54.272;18.558;2022-10-17T04:45:34;11.65;;;6.45;;
68806;SDS011;55800;54.272;18.558;2022-10-17T04:48:04;11.75;;;7.15;;
68806;SDS011;55800;54.272;18.558;2022-10-17T04:50:34;9.88;;;6.45;;
68806;SDS011;55800;54.272;18.558;2022-10-17T04:53:28;14.25;;;7.82;;
68806;SDS011;55800;54.272;18.558;2022-10-17T04:55:59;11.15;;;6.75;;
68806;SDS011;55800;54.272;18.558;2022-10-17T04:58:28;12.60;;;6.43;;
68806;SDS011;55800;54.272;18.558;2022-10-17T05:00:58;16.80;;;7.28;;
68806;SDS011;55800;54.272;18.558;2022-10-17T05:03:31;11.60;;;7.00;;
68806;SDS011;55800;54.272;18.558;2022-10-17T05:06:04;13.50;;;7.95;;
68806;SDS011;55800;54.272;18.558;2022-10-17T05:08:37;9.30;;;6.43;;
68806;SDS011;55800;54.272;18.558;2022-10-17T05:11:14;12.90;;;8.20;;
68806;SDS011;55800;54.272;18.558;2022-10-17T05:13:48;10.68;;;6.53;;
68806;SDS011;55800;54.272;18.558;2022-10-17T05:16:19;9.90;;;7.68;;
68806;SDS011;55800;54.272;18.558;2022-10-17T05:18:48;10.07;;;7.43;;
68806;SDS011;55800;54.272;18.558;2022-10-17T05:21:20;19.77;;;7.53;;
68806;SDS011;55800;54.272;18.558;2022-10-17T05:23:53;11.35;;;6.95;;
68806;SDS011;55800;54.272;18.558;2022-10-17T05:26:23;15.13;;;9.80;;
68806;SDS011;55800;54.272;18.558;2022-10-17T05:28:53;21.80;;;12.30;;
68806;SDS011;55800;54.272;18.558;2022-10-17T05:31:24;16.20;;;8.05;;
68806;SDS011;55800;54.272;18.558;2022-10-17T05:33:53;31.08;;;16.67;;
68806;SDS011;55800;54.272;18.558;2022-10-17T05:36:24;123.00;;;59.00;;
68806;SDS011;55800;54.272;18.558;2022-10-17T05:41:24;32.20;;;16.65;;
68806;SDS011;55800;54.272;18.558;2022-10-17T05:43:53;18.55;;;9.48;;
68806;SDS011;55800;54.272;18.558;2022-10-17T05:46:41;15.88;;;6.80;;
68806;SDS011;55800;54.272;18.558;2022-10-17T05:49:11;9.68;;;6.68;;
68806;SDS011;55800;54.272;18.558;2022-10-17T05:51:59;11.55;;;6.68;;
68806;SDS011;55800;54.272;18.558;2022-10-17T05:54:35;9.23;;;6.15;;
68806;SDS011;55800;54.272;18.558;2022-10-17T05:57:04;11.35;;;6.63;;
68806;SDS011;55800;54.272;18.558;2022-10-17T05:59:34;12.48;;;7.22;;
68806;SDS011;55800;54.272;18.558;2022-10-17T06:02:11;13.57;;;7.10;;
68806;SDS011;55800;54.272;18.558;2022-10-17T06:07:13;10.75;;;6.00;;
68806;SDS011;55800;54.272;18.558;2022-10-17T06:09:45;10.35;;;7.43;;
68806;SDS011;55800;54.272;18.558;2022-10-17T06:12:14;13.43;;;7.68;;
68806;SDS011;55800;54.272;18.558;2022-10-17T06:14:44;14.00;;;8.18;;
68806;SDS011;55800;54.272;18.558;2022-10-17T06:17:14;10.48;;;7.20;;
68806;SDS011;55800;54.272;18.558;2022-10-17T06:19:43;24.60;;;15.35;;
68806;SDS011;55800;54.272;18.558;2022-10-17T06:22:14;14.60;;;10.05;;
68806;SDS011;55800;54.272;18.558;2022-10-17T06:24:46;10.30;;;6.60;;
68806;SDS011;55800;54.272;18.558;2022-10-17T06:27:16;10.63;;;7.53;;
68806;SDS011;55800;54.272;18.558;2022-10-17T06:32:17;14.70;;;6.72;;
68806;SDS011;55800;54.272;18.558;2022-10-17T06:34:46;13.13;;;8.05;;
68806;SDS011;55800;54.272;18.558;2022-10-17T06:37:16;19.60;;;11.35;;
68806;SDS011;55800;54.272;18.558;2022-10-17T06:39:48;20.13;;;13.70;;
68806;SDS011;55800;54.272;18.558;2022-10-17T06:42:20;21.10;;;12.23;;
68806;SDS011;55800;54.272;18.558;2022-10-17T06:45:05;25.52;;;15.63;;
68806;SDS011;55800;54.272;18.558;2022-10-17T06:47:51;17.40;;;11.50;;
68806;SDS011;55800;54.272;18.558;2022-10-17T06:50:49;16.83;;;10.97;;
68806;SDS011;55800;54.272;18.558;2022-10-17T06:53:22;20.60;;;11.85;;
68806;SDS011;55800;54.272;18.558;2022-10-17T06:56:13;20.60;;;11.32;;
68806;SDS011;55800;54.272;18.558;2022-10-17T06:58:53;23.63;;;11.35;;
68806;SDS011;55800;54.272;18.558;2022-10-17T07:04:14;19.17;;;11.70;;
68806;SDS011;55800;54.272;18.558;2022-10-17T07:06:43;21.08;;;12.50;;
68806;SDS011;55800;54.272;18.558;2022-10-17T07:09:19;23.40;;;12.82;;
68806;SDS011;55800;54.272;18.558;2022-10-17T07:11:51;21.38;;;14.65;;
68806;SDS011;55800;54.272;18.558;2022-10-17T07:14:20;20.90;;;13.40;;
68806;SDS011;55800;54.272;18.558;2022-10-17T07:16:57;22.27;;;13.75;;
68806;SDS011;55800;54.272;18.558;2022-10-17T07:19:30;17.13;;;11.40;;
68806;SDS011;55800;54.272;18.558;2022-10-17T07:21:59;17.45;;;12.32;;
68806;SDS011;55800;54.272;18.558;2022-10-17T07:24:30;20.80;;;13.15;;
68806;SDS011;55800;54.272;18.558;2022-10-17T07:27:13;24.55;;;14.23;;
68806;SDS011;55800;54.272;18.558;2022-10-17T07:29:43;18.10;;;12.63;;
68806;SDS011;55800;54.272;18.558;2022-10-17T07:32:38;16.95;;;10.93;;
68806;SDS011;55800;54.272;18.558;2022-10-17T07:35:08;20.83;;;11.15;;
68806;SDS011;55800;54.272;18.558;2022-10-17T07:37:39;22.40;;;11.98;;
68806;SDS011;55800;54.272;18.558;2022-10-17T07:40:09;17.83;;;12.10;;
68806;SDS011;55800;54.272;18.558;2022-10-17T07:42:40;24.33;;;12.45;;
68806;SDS011;55800;54.272;18.558;2022-10-17T07:45:10;20.23;;;12.07;;
68806;SDS011;55800;54.272;18.558;2022-10-17T07:47:40;21.30;;;13.05;;
68806;SDS011;55800;54.272;18.558;2022-10-17T07:50:14;23.50;;;11.55;;
68806;SDS011;55800;54.272;18.558;2022-10-17T07:52:44;25.80;;;13.75;;
68806;SDS011;55800;54.272;18.558;2022-10-17T07:55:14;26.75;;;15.68;;
68806;SDS011;55800;54.272;18.558;2022-10-17T08:00:14;23.05;;;12.82;;
68806;SDS011;55800;54.272;18.558;2022-10-17T08:02:43;23.90;;;13.85;;
68806;SDS011;55800;54.272;18.558;2022-10-17T08:05:12;22.52;;;13.70;;
68806;SDS011;55800;54.272;18.558;2022-10-17T08:07:42;27.85;;;15.02;;
68806;SDS011;55800;54.272;18.558;2022-10-17T08:10:12;23.63;;;14.20;;
68806;SDS011;55800;54.272;18.558;2022-10-17T08:12:42;22.08;;;13.80;;
68806;SDS011;55800;54.272;18.558;2022-10-17T08:15:13;22.50;;;13.05;;
68806;SDS011;55800;54.272;18.558;2022-10-17T08:17:42;19.63;;;11.98;;
68806;SDS011;55800;54.272;18.558;2022-10-17T08:20:12;19.65;;;12.70;;
68806;SDS011;55800;54.272;18.558;2022-10-17T08:22:41;22.70;;;14.65;;
68806;SDS011;55800;54.272;18.558;2022-10-17T08:25:11;22.45;;;14.52;;
68806;SDS011;55800;54.272;18.558;2022-10-17T08:27:40;30.05;;;17.50;;
68806;SDS011;55800;54.272;18.558;2022-10-17T08:30:10;28.77;;;16.98;;
68806;SDS011;55800;54.272;18.558;2022-10-17T08:32:40;28.90;;;16.45;;
68806;SDS011;55800;54.272;18.558;2022-10-17T08:37:40;38.33;;;20.05;;
68806;SDS011;55800;54.272;18.558;2022-10-17T08:40:13;29.02;;;17.90;;
68806;SDS011;55800;54.272;18.558;2022-10-17T08:42:51;35.78;;;20.90;;
68806;SDS011;55800;54.272;18.558;2022-10-17T08:45:32;32.78;;;21.08;;
68806;SDS011;55800;54.272;18.558;2022-10-17T08:48:08;37.35;;;22.17;;
68806;SDS011;55800;54.272;18.558;2022-10-17T08:50:42;37.05;;;21.25;;
68806;SDS011;55800;54.272;18.558;2022-10-17T08:53:16;36.45;;;21.80;;
68806;SDS011;55800;54.272;18.558;2022-10-17T08:55:50;40.53;;;23.15;;
68806;SDS011;55800;54.272;18.558;2022-10-17T08:58:22;38.85;;;23.20;;
68806;SDS011;55800;54.272;18.558;2022-10-17T09:00:59;41.67;;;25.73;;
68806;SDS011;55800;54.272;18.558;2022-10-17T09:03:48;38.42;;;23.20;;
68806;SDS011;55800;54.272;18.558;2022-10-17T09:06:30;39.63;;;24.35;;
68806;SDS011;55800;54.272;18.558;2022-10-17T09:09:06;42.38;;;23.75;;
68806;SDS011;55800;54.272;18.558;2022-10-17T09:11:47;41.38;;;23.42;;
68806;SDS011;55800;54.272;18.558;2022-10-17T09:14:31;49.83;;;23.88;;
68806;SDS011;55800;54.272;18.558;2022-10-17T09:17:19;29.35;;;20.38;;
68806;SDS011;55800;54.272;18.558;2022-10-17T09:19:59;31.02;;;20.27;;
68806;SDS011;55800;54.272;18.558;2022-10-17T09:22:36;26.60;;;18.20;;
68806;SDS011;55800;54.272;18.558;2022-10-17T09:25:10;27.63;;;18.88;;
68806;SDS011;55800;54.272;18.558;2022-10-17T09:27:43;25.95;;;16.65;;
68806;SDS011;55800;54.272;18.558;2022-10-17T09:30:28;26.25;;;16.02;;
68806;SDS011;55800;54.272;18.558;2022-10-17T09:33:14;23.90;;;16.65;;
68806;SDS011;55800;54.272;18.558;2022-10-17T09:36:09;29.52;;;16.05;;
68806;SDS011;55800;54.272;18.558;2022-10-17T09:38:42;26.67;;;15.90;;
68806;SDS011;55800;54.272;18.558;2022-10-17T09:41:16;22.05;;;15.05;;
68806;SDS011;55800;54.272;18.558;2022-10-17T09:44:11;23.58;;;13.10;;
68806;SDS011;55800;54.272;18.558;2022-10-17T09:46:46;20.20;;;12.70;;
68806;SDS011;55800;54.272;18.558;2022-10-17T09:49:33;16.40;;;11.27;;
68806;SDS011;55800;54.272;18.558;2022-10-17T09:52:04;18.23;;;12.43;;
68806;SDS011;55800;54.272;18.558;2022-10-17T09:54:46;17.70;;;13.05;;
68806;SDS011;55800;54.272;18.558;2022-10-17T09:57:18;21.20;;;13.45;;
68806;SDS011;55800;54.272;18.558;2022-10-17T09:59:55;18.02;;;12.60;;
68806;SDS011;55800;54.272;18.558;2022-10-17T10:02:27;18.67;;;13.40;;
68806;SDS011;55800;54.272;18.558;2022-10-17T10:05:02;20.88;;;12.43;;
68806;SDS011;55800;54.272;18.558;2022-10-17T10:07:34;21.10;;;14.80;;
68806;SDS011;55800;54.272;18.558;2022-10-17T10:10:06;20.50;;;13.52;;
68806;SDS011;55800;54.272;18.558;2022-10-17T10:13:01;19.95;;;12.98;;
68806;SDS011;55800;54.272;18.558;2022-10-17T10:15:34;23.17;;;14.43;;
68806;SDS011;55800;54.272;18.558;2022-10-17T10:21:05;21.13;;;14.80;;
68806;SDS011;55800;54.272;18.558;2022-10-17T10:23:37;18.30;;;12.10;;
68806;SDS011;55800;54.272;18.558;2022-10-17T10:26:16;19.15;;;13.80;;
68806;SDS011;55800;54.272;18.558;2022-10-17T10:28:51;17.83;;;11.82;;
68806;SDS011;55800;54.272;18.558;2022-10-17T10:31:27;15.25;;;11.20;;
68806;SDS011;55800;54.272;18.558;2022-10-17T10:34:03;17.90;;;10.23;;
68806;SDS011;55800;54.272;18.558;2022-10-17T10:36:52;13.80;;;10.07;;
68806;SDS011;55800;54.272;18.558;2022-10-17T10:39:35;12.55;;;9.45;;
68806;SDS011;55800;54.272;18.558;2022-10-17T10:42:20;18.85;;;11.02;;
68806;SDS011;55800;54.272;18.558;2022-10-17T10:44:53;21.80;;;10.43;;
68806;SDS011;55800;54.272;18.558;2022-10-17T10:47:26;17.73;;;10.00;;
68806;SDS011;55800;54.272;18.558;2022-10-17T10:50:14;15.77;;;9.85;;
68806;SDS011;55800;54.272;18.558;2022-10-17T10:52:51;16.08;;;10.07;;
68806;SDS011;55800;54.272;18.558;2022-10-17T10:55:33;15.07;;;9.30;;
68806;SDS011;55800;54.272;18.558;2022-10-17T10:58:12;13.57;;;9.57;;
68806;SDS011;55800;54.272;18.558;2022-10-17T11:00:50;14.30;;;10.27;;
68806;SDS011;55800;54.272;18.558;2022-10-17T11:03:22;15.95;;;10.48;;
68806;SDS011;55800;54.272;18.558;2022-10-17T11:05:59;14.73;;;9.82;;
68806;SDS011;55800;54.272;18.558;2022-10-17T11:08:34;13.93;;;10.95;;
68806;SDS011;55800;54.272;18.558;2022-10-17T11:11:10;16.17;;;10.73;;
68806;SDS011;55800;54.272;18.558;2022-10-17T11:13:46;16.27;;;10.93;;
68806;SDS011;55800;54.272;18.558;2022-10-17T11:16:26;19.02;;;11.25;;
68806;SDS011;55800;54.272;18.558;2022-10-17T11:19:03;19.25;;;11.65;;
68806;SDS011;55800;54.272;18.558;2022-10-17T11:21:42;17.90;;;11.25;;
68806;SDS011;55800;54.272;18.558;2022-10-17T11:24:17;19.45;;;12.02;;
68806;SDS011;55800;54.272;18.558;2022-10-17T11:26:52;17.42;;;13.35;;
68806;SDS011;55800;54.272;18.558;2022-10-17T11:29:27;21.08;;;12.48;;
68806;SDS011;55800;54.272;18.558;2022-10-17T11:31:59;24.02;;;11.73;;
68806;SDS011;55800;54.272;18.558;2022-10-17T11:34:34;18.10;;;11.50;;
68806;SDS011;55800;54.272;18.558;2022-10-17T11:37:10;18.75;;;12.38;;
68806;SDS011;55800;54.272;18.558;2022-10-17T11:39:49;19.73;;;12.98;;
68806;SDS011;55800;54.272;18.558;2022-10-17T11:42:23;15.95;;;10.68;;
68806;SDS011;55800;54.272;18.558;2022-10-17T11:44:59;15.38;;;11.05;;
68806;SDS011;55800;54.272;18.558;2022-10-17T11:47:35;16.70;;;11.07;;
68806;SDS011;55800;54.272;18.558;2022-10-17T11:50:11;15.18;;;11.57;;
68806;SDS011;55800;54.272;18.558;2022-10-17T11:53:10;16.60;;;10.98;;
68806;SDS011;55800;54.272;18.558;2022-10-17T11:55:44;19.98;;;13.32;;
68806;SDS011;55800;54.272;18.558;2022-10-17T11:58:17;18.90;;;11.57;;
68806;SDS011;55800;54.272;18.558;2022-10-17T12:01:05;17.38;;;11.40;;
68806;SDS011;55800;54.272;18.558;2022-10-17T12:03:44;19.23;;;12.63;;
68806;SDS011;55800;54.272;18.558;2022-10-17T12:06:38;19.05;;;10.98;;
68806;SDS011;55800;54.272;18.558;2022-10-17T12:09:19;18.77;;;11.82;;
68806;SDS011;55800;54.272;18.558;2022-10-17T12:11:56;17.80;;;11.68;;
68806;SDS011;55800;54.272;18.558;2022-10-17T12:14:35;17.02;;;10.80;;
68806;SDS011;55800;54.272;18.558;2022-10-17T12:17:20;14.25;;;10.20;;
68806;SDS011;55800;54.272;18.558;2022-10-17T12:22:53;12.48;;;8.30;;
68806;SDS011;55800;54.272;18.558;2022-10-17T12:25:32;10.43;;;7.65;;
68806;SDS011;55800;54.272;18.558;2022-10-17T12:28:13;10.43;;;7.30;;
68806;SDS011;55800;54.272;18.558;2022-10-17T12:30:51;9.90;;;7.68;;
68806;SDS011;55800;54.272;18.558;2022-10-17T12:33:25;11.63;;;7.95;;
68806;SDS011;55800;54.272;18.558;2022-10-17T12:51:23;12.02;;;8.65;;
68806;SDS011;55800;54.272;18.558;2022-10-17T12:54:07;13.32;;;9.10;;
68806;SDS011;55800;54.272;18.558;2022-10-17T12:56:40;12.25;;;9.68;;
68806;SDS011;55800;54.272;18.558;2022-10-17T12:59:12;16.70;;;10.65;;
68806;SDS011;55800;54.272;18.558;2022-10-17T13:01:45;14.77;;;9.73;;
68806;SDS011;55800;54.272;18.558;2022-10-17T13:04:17;16.77;;;10.40;;
68806;SDS011;55800;54.272;18.558;2022-10-17T13:06:50;16.75;;;11.77;;
68806;SDS011;55800;54.272;18.558;2022-10-17T13:09:23;18.50;;;11.90;;
68806;SDS011;55800;54.272;18.558;2022-10-17T13:11:56;16.20;;;11.35;;
68806;SDS011;55800;54.272;18.558;2022-10-17T13:14:28;13.70;;;10.93;;
68806;SDS011;55800;54.272;18.558;2022-10-17T13:16:59;16.42;;;10.30;;
68806;SDS011;55800;54.272;18.558;2022-10-17T13:19:31;16.10;;;11.25;;
68806;SDS011;55800;54.272;18.558;2022-10-17T13:22:12;17.52;;;10.07;;
68806;SDS011;55800;54.272;18.558;2022-10-17T13:24:44;20.15;;;10.38;;
68806;SDS011;55800;54.272;18.558;2022-10-17T13:27:25;15.02;;;10.20;;
68806;SDS011;55800;54.272;18.558;2022-10-17T13:29:56;13.73;;;9.48;;
68806;SDS011;55800;54.272;18.558;2022-10-17T13:32:33;16.70;;;9.38;;
68806;SDS011;55800;54.272;18.558;2022-10-17T13:35:05;13.75;;;9.00;;
68806;SDS011;55800;54.272;18.558;2022-10-17T13:37:39;14.50;;;8.05;;
68806;SDS011;55800;54.272;18.558;2022-10-17T13:40:17;13.02;;;8.10;;
68806;SDS011;55800;54.272;18.558;2022-10-17T13:43:10;11.85;;;7.85;;
68806;SDS011;55800;54.272;18.558;2022-10-17T13:45:44;9.95;;;7.47;;
68806;SDS011;55800;54.272;18.558;2022-10-17T13:48:17;11.02;;;8.15;;
68806;SDS011;55800;54.272;18.558;2022-10-17T13:50:49;13.13;;;7.88;;
68806;SDS011;55800;54.272;18.558;2022-10-17T13:56:00;11.57;;;7.47;;
68806;SDS011;55800;54.272;18.558;2022-10-17T13:58:51;10.93;;;7.43;;
68806;SDS011;55800;54.272;18.558;2022-10-17T14:01:23;16.95;;;9.10;;
68806;SDS011;55800;54.272;18.558;2022-10-17T14:03:55;12.18;;;8.80;;
68806;SDS011;55800;54.272;18.558;2022-10-17T14:06:36;13.80;;;9.13;;
68806;SDS011;55800;54.272;18.558;2022-10-17T14:09:20;15.98;;;9.70;;
68806;SDS011;55800;54.272;18.558;2022-10-17T14:11:58;12.68;;;8.98;;
68806;SDS011;55800;54.272;18.558;2022-10-17T14:14:30;15.65;;;8.18;;
68806;SDS011;55800;54.272;18.558;2022-10-17T14:17:20;13.60;;;8.70;;
68806;SDS011;55800;54.272;18.558;2022-10-17T14:19:54;12.27;;;8.25;;
68806;SDS011;55800;54.272;18.558;2022-10-17T14:22:50;18.67;;;9.23;;
68806;SDS011;55800;54.272;18.558;2022-10-17T14:25:41;16.05;;;12.30;;
68806;SDS011;55800;54.272;18.558;2022-10-17T14:28:12;17.20;;;10.30;;
68806;SDS011;55800;54.272;18.558;2022-10-17T14:30:44;14.45;;;10.05;;
68806;SDS011;55800;54.272;18.558;2022-10-17T14:33:23;14.85;;;9.55;;
68806;SDS011;55800;54.272;18.558;2022-10-17T14:35:56;14.32;;;10.68;;
68806;SDS011;55800;54.272;18.558;2022-10-17T14:38:28;17.80;;;10.32;;
68806;SDS011;55800;54.272;18.558;2022-10-17T14:41:00;16.92;;;11.25;;
68806;SDS011;55800;54.272;18.558;2022-10-17T14:43:56;17.77;;;10.82;;
68806;SDS011;55800;54.272;18.558;2022-10-17T14:46:27;17.77;;;10.52;;
68806;SDS011;55800;54.272;18.558;2022-10-17T14:49:06;15.13;;;9.73;;
68806;SDS011;55800;54.272;18.558;2022-10-17T14:54:53;13.77;;;9.90;;
68806;SDS011;55800;54.272;18.558;2022-10-17T14:57:42;17.73;;;10.18;;
68806;SDS011;55800;54.272;18.558;2022-10-17T15:00:13;12.75;;;8.98;;
68806;SDS011;55800;54.272;18.558;2022-10-17T15:02:43;16.20;;;10.00;;
68806;SDS011;55800;54.272;18.558;2022-10-17T15:05:14;19.17;;;11.57;;
68806;SDS011;55800;54.272;18.558;2022-10-17T15:07:45;15.90;;;10.20;;
68806;SDS011;55800;54.272;18.558;2022-10-17T15:10:22;18.42;;;10.82;;
68806;SDS011;55800;54.272;18.558;2022-10-17T15:12:56;22.17;;;10.98;;
68806;SDS011;55800;54.272;18.558;2022-10-17T15:15:48;17.83;;;11.02;;
68806;SDS011;55800;54.272;18.558;2022-10-17T15:18:19;17.85;;;11.20;;
68806;SDS011;55800;54.272;18.558;2022-10-17T15:20:49;17.17;;;11.27;;
68806;SDS011;55800;54.272;18.558;2022-10-17T15:23:38;17.70;;;12.02;;
68806;SDS011;55800;54.272;18.558;2022-10-17T15:26:11;22.52;;;13.43;;
68806;SDS011;55800;54.272;18.558;2022-10-17T15:28:46;25.55;;;13.80;;
68806;SDS011;55800;54.272;18.558;2022-10-17T15:31:17;22.88;;;14.07;;
68806;SDS011;55800;54.272;18.558;2022-10-17T15:33:48;21.77;;;13.77;;
68806;SDS011;55800;54.272;18.558;2022-10-17T15:36:22;20.30;;;13.18;;
68806;SDS011;55800;54.272;18.558;2022-10-17T15:38:53;22.83;;;14.18;;
68806;SDS011;55800;54.272;18.558;2022-10-17T15:41:24;23.20;;;13.23;;
68806;SDS011;55800;54.272;18.558;2022-10-17T15:43:56;25.85;;;14.00;;
68806;SDS011;55800;54.272;18.558;2022-10-17T15:46:26;20.02;;;13.02;;
68806;SDS011;55800;54.272;18.558;2022-10-17T15:49:00;18.80;;;13.13;;
68806;SDS011;55800;54.272;18.558;2022-10-17T15:51:33;19.90;;;13.25;;